createdAt,value
2022-12-08T00:00:54.658Z,3.72
2022-12-08T00:03:27.147Z,3.76
2022-12-08T00:06:17.458Z,3.71
2022-12-08T00:09:08.336Z,3.70
2022-12-08T00:11:40.002Z,3.66
2022-12-08T00:14:14.350Z,3.64
2022-12-08T00:16:46.293Z,3.64
2022-12-08T00:19:18.109Z,3.65
2022-12-08T00:21:53.613Z,3.68
2022-12-08T00:24:30.810Z,3.69
2022-12-08T00:27:03.006Z,3.67
2022-12-08T00:29:34.720Z,3.65
2022-12-08T00:32:06.680Z,3.68
2022-12-08T00:34:38.398Z,3.64
2022-12-08T00:37:10.005Z,3.60
2022-12-08T00:39:41.626Z,3.64
2022-12-08T00:42:13.273Z,3.59
2022-12-08T00:44:45.937Z,3.62
2022-12-08T00:47:24.501Z,3.62
2022-12-08T00:49:57.319Z,3.62
2022-12-08T00:52:28.945Z,3.63
2022-12-08T00:55:00.612Z,3.66
2022-12-08T00:57:35.038Z,3.68
2022-12-08T01:00:09.857Z,3.71
2022-12-08T01:02:41.328Z,3.65
2022-12-08T01:05:12.920Z,3.66
2022-12-08T01:07:44.866Z,3.68
2022-12-08T01:10:17.004Z,3.66
2022-12-08T01:12:48.549Z,3.59
2022-12-08T01:15:20.188Z,3.60
2022-12-08T01:17:51.783Z,3.63
2022-12-08T01:20:23.435Z,3.67
2022-12-08T01:22:55.050Z,3.70
2022-12-08T01:25:29.652Z,3.70
2022-12-08T01:28:01.358Z,3.75
2022-12-08T01:30:33.112Z,3.72
2022-12-08T01:33:05.302Z,3.72
2022-12-08T01:35:40.469Z,3.72
2022-12-08T01:38:12.082Z,3.74
2022-12-08T01:40:43.805Z,3.76
2022-12-08T01:43:20.299Z,3.76
2022-12-08T01:45:51.982Z,3.79
2022-12-08T01:48:27.920Z,3.77
2022-12-08T01:51:02.630Z,3.76
2022-12-08T01:53:34.393Z,3.73
2022-12-08T01:56:10.051Z,3.69
2022-12-08T01:58:46.494Z,3.69
2022-12-08T02:01:23.613Z,3.68
2022-12-08T02:04:00.380Z,3.61
2022-12-08T02:06:36.688Z,3.57
2022-12-08T02:09:11.841Z,3.51
2022-12-08T02:11:43.516Z,3.51
2022-12-08T02:14:18.356Z,3.54
2022-12-08T02:17:08.561Z,3.55
2022-12-08T02:20:20.357Z,3.51
2022-12-08T02:23:30.779Z,3.53
2022-12-08T02:26:20.611Z,3.56
2022-12-08T02:29:18.711Z,3.58
2022-12-08T02:32:15.217Z,3.60
2022-12-08T02:34:49.455Z,3.57
2022-12-08T02:37:32.759Z,3.61
2022-12-08T02:40:33.450Z,3.56
2022-12-08T02:43:14.338Z,3.62
2022-12-08T02:45:55.411Z,3.62
2022-12-08T02:48:28.977Z,3.65
2022-12-08T02:51:01.344Z,3.69
2022-12-08T02:53:35.165Z,3.70
2022-12-08T02:56:18.783Z,3.74
2022-12-08T02:58:52.931Z,3.79
2022-12-08T03:01:49.620Z,3.81
2022-12-08T03:04:33.148Z,3.79
2022-12-08T03:07:15.611Z,3.75
2022-12-08T03:09:55.061Z,3.67
2022-12-08T03:12:55.547Z,3.72
2022-12-08T03:15:27.687Z,3.76
2022-12-08T03:18:00.920Z,3.74
2022-12-08T03:20:34.904Z,3.71
2022-12-08T03:23:11.009Z,3.70
2022-12-08T03:26:08.595Z,3.69
2022-12-08T03:28:40.437Z,3.74
2022-12-08T03:31:16.061Z,3.76
2022-12-08T03:33:51.901Z,3.74
2022-12-08T03:36:24.079Z,3.71
2022-12-08T03:38:55.657Z,3.68
2022-12-08T03:41:30.151Z,3.69
2022-12-08T03:44:01.809Z,3.73
2022-12-08T03:46:33.557Z,3.75
2022-12-08T03:49:05.329Z,3.77
2022-12-08T03:51:37.008Z,3.78
2022-12-08T03:54:09.792Z,3.79
2022-12-08T03:56:41.411Z,3.80
2022-12-08T03:59:13.227Z,3.78
2022-12-08T04:01:44.951Z,3.80
2022-12-08T04:04:20.624Z,3.78
2022-12-08T04:06:54.839Z,3.77
2022-12-08T04:09:26.484Z,3.80
2022-12-08T04:11:58.094Z,3.80
2022-12-08T04:14:33.742Z,3.80
2022-12-08T04:17:05.719Z,3.82
2022-12-08T04:19:37.363Z,3.77
2022-12-08T04:22:09.033Z,3.71
2022-12-08T04:24:43.284Z,3.74
2022-12-08T04:27:14.994Z,3.72
2022-12-08T04:29:49.218Z,3.68
2022-12-08T04:32:20.864Z,3.71
2022-12-08T04:34:52.490Z,3.69
2022-12-08T04:37:24.153Z,3.66
2022-12-08T04:39:55.737Z,3.61
2022-12-08T04:42:27.358Z,3.64
2022-12-08T04:44:58.920Z,3.63
2022-12-08T04:47:30.540Z,3.65
2022-12-08T04:50:02.957Z,3.63
2022-12-08T04:52:35.216Z,3.55
2022-12-08T04:55:07.055Z,3.55
2022-12-08T04:57:38.712Z,3.55
2022-12-08T05:00:11.284Z,3.52
2022-12-08T05:02:42.990Z,3.49
2022-12-08T05:05:17.986Z,3.44
2022-12-08T05:07:49.629Z,3.46
2022-12-08T05:10:21.621Z,3.48
2022-12-08T05:12:53.520Z,3.46
2022-12-08T05:15:25.388Z,3.43
2022-12-08T05:17:57.016Z,3.40
2022-12-08T05:20:28.680Z,3.38
2022-12-08T05:23:00.643Z,3.32
2022-12-08T05:25:32.276Z,3.34
2022-12-08T05:28:32.909Z,3.36
2022-12-08T05:30:55.494Z,3.27
2022-12-08T05:33:27.101Z,3.27
2022-12-08T05:35:58.728Z,3.22
2022-12-08T05:38:30.823Z,3.23
2022-12-08T05:41:02.537Z,3.23
2022-12-08T05:43:34.460Z,3.20
2022-12-08T05:46:08.071Z,3.17
2022-12-08T05:48:40.184Z,3.16
2022-12-08T05:51:21.215Z,3.09
2022-12-08T05:53:55.104Z,3.09
2022-12-08T05:56:26.711Z,3.10
2022-12-08T05:58:58.347Z,3.10
2022-12-08T06:01:34.333Z,3.11
2022-12-08T06:04:05.959Z,3.05
2022-12-08T06:06:38.566Z,3.02
2022-12-08T06:09:10.410Z,2.99
2022-12-08T06:11:42.515Z,3.01
2022-12-08T06:14:14.208Z,2.95
2022-12-08T06:16:49.732Z,2.96
2022-12-08T06:19:21.373Z,2.98
2022-12-08T06:21:53.064Z,2.98
2022-12-08T06:24:24.737Z,3.04
2022-12-08T06:26:56.382Z,3.05
2022-12-08T06:29:28.043Z,3.05
2022-12-08T06:31:59.712Z,3.06
2022-12-08T06:34:31.788Z,3.05
2022-12-08T06:37:03.441Z,3.05
2022-12-08T06:39:36.114Z,3.05
2022-12-08T06:42:26.616Z,3.03
2022-12-08T06:44:58.524Z,2.99
2022-12-08T06:47:30.170Z,2.99
2022-12-08T06:50:02.470Z,2.99
2022-12-08T06:52:37.637Z,3.01
2022-12-08T06:55:29.166Z,3.02
2022-12-08T06:58:05.425Z,3.03
2022-12-08T07:00:37.070Z,3.04
2022-12-08T07:03:10.258Z,3.08
2022-12-08T07:05:41.912Z,3.02
2022-12-08T07:08:15.258Z,3.08
2022-12-08T07:10:46.895Z,3.12
2022-12-08T07:13:18.613Z,3.13
2022-12-08T07:15:50.279Z,3.15
2022-12-08T07:18:22.249Z,3.16
2022-12-08T07:20:53.797Z,3.19
2022-12-08T07:23:25.461Z,3.23
2022-12-08T07:26:02.423Z,3.30
2022-12-08T07:28:35.885Z,3.35
2022-12-08T07:31:15.983Z,3.39
2022-12-08T07:33:47.948Z,3.40
2022-12-08T07:36:19.677Z,3.43
2022-12-08T07:38:53.368Z,3.47
2022-12-08T07:41:26.321Z,3.49
2022-12-08T07:43:57.934Z,3.51
2022-12-08T07:46:29.632Z,3.49
2022-12-08T07:49:01.389Z,3.56
2022-12-08T07:51:33.077Z,3.61
2022-12-08T07:54:04.962Z,3.62
2022-12-08T07:56:36.546Z,3.63
2022-12-08T07:59:08.153Z,3.73
2022-12-08T08:01:40.434Z,3.84
2022-12-08T08:04:12.197Z,4.01
2022-12-08T08:06:43.823Z,5.32
2022-12-08T08:09:15.550Z,6.68
2022-12-08T08:12:01.294Z,6.98
2022-12-08T08:14:39.884Z,6.57
2022-12-08T08:17:11.609Z,6.96
2022-12-08T08:19:46.282Z,8.21
2022-12-08T08:22:17.931Z,9.19
2022-12-08T08:24:52.293Z,9.36
2022-12-08T08:27:25.057Z,8.95
2022-12-08T08:29:56.623Z,8.42
2022-12-08T08:32:28.292Z,7.86
2022-12-08T08:35:01.321Z,7.43
2022-12-08T08:37:32.949Z,7.21
2022-12-08T08:40:06.307Z,6.85
2022-12-08T08:42:38.047Z,6.41
2022-12-08T08:45:10.087Z,6.14
2022-12-08T08:47:41.730Z,6.03
2022-12-08T08:50:14.414Z,5.79
2022-12-08T08:52:46.058Z,5.67
2022-12-08T08:55:18.929Z,5.61
2022-12-08T08:57:50.572Z,5.56
2022-12-08T09:00:22.445Z,5.54
2022-12-08T09:02:54.021Z,5.46
2022-12-08T09:05:26.100Z,5.44
2022-12-08T09:07:57.888Z,5.46
2022-12-08T09:10:30.412Z,5.48
2022-12-08T09:13:02.066Z,5.49
2022-12-08T09:15:33.763Z,5.56
2022-12-08T09:18:06.867Z,5.60
2022-12-08T09:20:38.655Z,5.60
2022-12-08T09:23:10.321Z,5.65
2022-12-08T09:25:45.950Z,5.73
2022-12-08T09:28:17.557Z,5.68
2022-12-08T09:30:51.616Z,5.53
2022-12-08T09:33:26.472Z,5.47
2022-12-08T09:36:03.921Z,5.42
2022-12-08T09:38:39.514Z,5.33
2022-12-08T09:41:36.559Z,5.41
2022-12-08T09:44:36.084Z,5.52
2022-12-08T09:47:35.349Z,5.66
2022-12-08T09:50:19.621Z,5.78
2022-12-08T09:53:08.539Z,5.81
2022-12-08T09:55:49.459Z,5.87
2022-12-08T09:58:47.586Z,5.91
2022-12-08T10:01:21.559Z,5.87
2022-12-08T10:03:58.825Z,5.83
2022-12-08T10:06:59.931Z,5.77
2022-12-08T10:09:41.796Z,5.78
2022-12-08T10:12:19.332Z,5.78
2022-12-08T10:15:12.620Z,5.72
2022-12-08T10:17:51.052Z,5.65
2022-12-08T10:20:34.200Z,5.75
2022-12-08T10:23:09.063Z,5.92
2022-12-08T10:26:08.092Z,6.01
2022-12-08T10:28:44.809Z,6.11
2022-12-08T10:31:20.015Z,6.12
2022-12-08T10:33:58.846Z,6.20
2022-12-08T10:36:49.769Z,6.27
2022-12-08T10:39:35.409Z,6.44
2022-12-08T10:42:16.415Z,6.54
2022-12-08T10:45:09.347Z,6.51
2022-12-08T10:47:55.597Z,6.62
2022-12-08T10:50:43.673Z,6.77
2022-12-08T10:53:20.752Z,6.80
2022-12-08T10:56:05.854Z,6.88
2022-12-08T10:58:37.491Z,6.79
2022-12-08T11:01:28.207Z,6.69
2022-12-08T11:04:02.605Z,6.72
2022-12-08T11:06:35.680Z,6.72
2022-12-08T11:09:24.028Z,6.74
2022-12-08T11:11:59.484Z,6.71
2022-12-08T11:14:49.374Z,6.69
2022-12-08T11:17:29.835Z,6.77
2022-12-08T11:20:09.340Z,7.01
2022-12-08T11:22:46.395Z,8.49
2022-12-08T11:25:21.452Z,10.34
2022-12-08T11:27:59.548Z,11.70
2022-12-08T11:30:45.036Z,13.02
2022-12-08T11:33:21.667Z,13.96
2022-12-08T11:36:15.031Z,14.61
2022-12-08T11:38:49.229Z,15.44
2022-12-08T11:41:29.718Z,15.91
2022-12-08T11:44:07.583Z,16.45
2022-12-08T11:46:52.054Z,16.97
2022-12-08T11:49:39.904Z,16.59
2022-12-08T11:52:29.561Z,16.74
2022-12-08T11:55:25.614Z,16.44
2022-12-08T11:58:11.462Z,16.76
2022-12-08T12:00:43.187Z,16.55
2022-12-08T12:03:30.150Z,15.93
2022-12-08T12:06:53.203Z,16.44
2022-12-08T12:09:28.848Z,16.99
2022-12-08T12:12:23.061Z,16.12
2022-12-08T12:15:19.697Z,14.99
2022-12-08T12:17:54.517Z,15.12
2022-12-08T12:20:30.256Z,14.50
2022-12-08T12:23:07.204Z,13.35
2022-12-08T12:25:50.663Z,12.30
2022-12-08T12:28:26.806Z,11.56
2022-12-08T12:31:06.819Z,10.97
2022-12-08T12:33:38.551Z,10.31
2022-12-08T12:36:11.360Z,9.76
2022-12-08T12:39:01.221Z,9.20
2022-12-08T12:41:42.082Z,8.93
2022-12-08T12:44:13.678Z,8.71
2022-12-08T12:46:48.817Z,8.66
2022-12-08T12:49:38.843Z,8.63
2022-12-08T12:52:10.543Z,8.75
2022-12-08T12:54:43.959Z,8.73
2022-12-08T12:57:22.000Z,8.49
2022-12-08T12:59:55.845Z,8.37
2022-12-08T13:02:33.950Z,8.49
2022-12-08T13:05:21.962Z,8.38
2022-12-08T13:08:07.889Z,8.32
2022-12-08T13:10:48.578Z,8.17
2022-12-08T13:13:20.385Z,7.93
2022-12-08T13:15:55.521Z,7.69
2022-12-08T13:18:36.476Z,7.49
2022-12-08T13:21:10.901Z,7.33
2022-12-08T13:23:49.341Z,7.24
2022-12-08T13:26:26.932Z,7.03
2022-12-08T13:29:01.567Z,6.85
2022-12-08T13:31:36.091Z,6.78
2022-12-08T13:34:25.773Z,6.82
2022-12-08T13:37:06.272Z,6.79
2022-12-08T13:39:40.713Z,6.72
2022-12-08T13:42:12.453Z,6.64
2022-12-08T13:48:23.508Z,6.65
2022-12-08T13:55:06.871Z,6.56
2022-12-08T13:57:14.004Z,6.55
2022-12-08T13:59:45.963Z,6.49
2022-12-08T14:02:26.701Z,6.45
2022-12-08T14:07:54.954Z,6.39
2022-12-08T14:10:29.376Z,6.32
2022-12-08T14:13:05.499Z,6.27
2022-12-08T14:15:39.655Z,6.23
2022-12-08T14:18:31.034Z,6.23
2022-12-08T14:21:21.139Z,6.20
2022-12-08T14:23:53.341Z,6.08
2022-12-08T14:26:25.020Z,6.10
2022-12-08T14:28:56.881Z,6.10
2022-12-08T14:31:29.219Z,6.12
2022-12-08T14:34:00.952Z,6.11
2022-12-08T14:36:33.851Z,6.06
2022-12-08T14:39:05.564Z,6.03
2022-12-08T14:41:37.387Z,5.96
2022-12-08T14:44:27.653Z,5.85
2022-12-08T14:47:09.583Z,5.79
2022-12-08T14:49:41.440Z,5.75
2022-12-08T14:52:13.785Z,5.67
2022-12-08T14:54:46.053Z,5.62
2022-12-08T14:57:18.234Z,5.62
2022-12-08T14:59:50.358Z,5.61
2022-12-08T15:02:31.076Z,5.64
2022-12-08T15:05:22.527Z,5.64
2022-12-08T15:08:00.140Z,5.54
2022-12-08T15:10:37.699Z,5.50
2022-12-08T15:13:09.201Z,5.47
2022-12-08T15:15:54.299Z,5.46
2022-12-08T15:18:28.555Z,5.46
2022-12-08T15:21:06.127Z,5.48
2022-12-08T15:23:44.730Z,5.45
2022-12-08T15:26:21.836Z,5.44
2022-12-08T15:28:54.595Z,5.39
2022-12-08T15:31:26.217Z,5.35
2022-12-08T15:33:57.813Z,5.34
2022-12-08T15:36:36.465Z,5.34
2022-12-08T15:39:20.752Z,5.19
2022-12-08T15:41:52.391Z,5.19
2022-12-08T15:44:24.078Z,5.22
2022-12-08T15:46:56.182Z,5.24
2022-12-08T15:49:28.021Z,5.22
2022-12-08T15:52:11.254Z,5.26
2022-12-08T15:54:43.589Z,5.27
2022-12-08T16:00:51.193Z,5.21
2022-12-08T16:09:31.521Z,5.22
2022-12-08T16:12:21.959Z,5.21
2022-12-08T16:17:45.804Z,5.19
2022-12-08T16:20:18.208Z,5.20
2022-12-08T16:22:59.541Z,5.19
2022-12-08T16:26:08.622Z,5.16
2022-12-08T16:28:53.527Z,5.13
2022-12-08T16:31:23.100Z,5.10
2022-12-08T16:33:55.064Z,5.10
2022-12-08T16:36:26.661Z,5.10
2022-12-08T16:38:58.304Z,5.10
2022-12-08T16:41:48.259Z,5.11
2022-12-08T16:44:19.843Z,5.11
2022-12-08T16:46:51.461Z,5.12
2022-12-08T16:49:23.058Z,5.09
2022-12-08T16:51:54.738Z,5.10
2022-12-08T16:54:26.349Z,5.10
2022-12-08T16:56:58.065Z,5.12
2022-12-08T16:59:32.596Z,5.08
2022-12-08T17:02:04.469Z,5.11
2022-12-08T17:04:36.134Z,5.12
2022-12-08T17:07:07.852Z,5.08
2022-12-08T17:09:39.420Z,5.04
2022-12-08T17:12:11.101Z,5.04
2022-12-08T17:14:42.795Z,5.06
2022-12-08T17:17:16.400Z,5.07
2022-12-08T17:19:47.985Z,5.03
2022-12-08T17:22:19.577Z,4.98
2022-12-08T17:24:51.174Z,4.98
2022-12-08T17:27:25.943Z,4.99
2022-12-08T17:29:57.384Z,4.95
2022-12-08T17:32:29.093Z,4.95
2022-12-08T17:35:03.243Z,4.96
2022-12-08T17:37:35.202Z,4.94
2022-12-08T17:40:07.920Z,4.91
2022-12-08T17:42:39.828Z,4.90
2022-12-08T17:45:11.529Z,4.86
2022-12-08T17:47:43.096Z,4.81
2022-12-08T17:50:14.769Z,4.81
2022-12-08T17:52:50.889Z,4.82
2022-12-08T17:55:25.311Z,4.78
2022-12-08T17:57:56.974Z,4.79
2022-12-08T18:00:28.968Z,4.82
2022-12-08T18:03:00.756Z,4.78
2022-12-08T18:05:35.223Z,4.74
2022-12-08T18:08:07.052Z,4.72
2022-12-08T18:10:39.031Z,4.67
2022-12-08T18:13:10.744Z,4.63
2022-12-08T18:15:42.349Z,4.60
2022-12-08T18:18:13.917Z,4.54
2022-12-08T18:20:46.518Z,4.56
2022-12-08T18:23:18.721Z,4.58
2022-12-08T18:25:50.320Z,4.56
2022-12-08T18:28:21.963Z,4.50
2022-12-08T18:30:53.708Z,4.50
2022-12-08T18:33:25.353Z,4.46
2022-12-08T18:35:56.933Z,4.50
2022-12-08T18:38:28.578Z,4.45
2022-12-08T18:41:10.861Z,4.45
2022-12-08T18:43:42.470Z,4.45
2022-12-08T18:46:16.143Z,4.47
2022-12-08T18:48:49.214Z,4.48
2022-12-08T18:51:23.534Z,4.50
2022-12-08T18:53:55.195Z,4.44
2022-12-08T18:56:32.169Z,4.41
2022-12-08T18:59:09.275Z,4.41
2022-12-08T19:01:41.033Z,4.38
2022-12-08T19:04:29.198Z,4.35
2022-12-08T19:07:01.332Z,4.26
2022-12-08T19:09:32.924Z,4.18
2022-12-08T19:12:05.152Z,4.15
2022-12-08T19:14:36.753Z,4.13
2022-12-08T19:17:08.342Z,4.16
2022-12-08T19:19:39.963Z,4.12
2022-12-08T19:22:12.323Z,4.10
2022-12-08T19:24:43.981Z,4.05
2022-12-08T19:27:15.575Z,4.00
2022-12-08T19:29:47.316Z,4.03
2022-12-08T19:32:19.028Z,4.04
2022-12-08T19:34:51.336Z,4.00
2022-12-08T19:37:22.962Z,4.01
2022-12-08T19:40:13.412Z,4.00
2022-12-08T19:43:03.625Z,4.00
2022-12-08T19:45:35.847Z,4.00
2022-12-08T19:48:08.450Z,4.02
2022-12-08T19:50:40.617Z,4.03
2022-12-08T19:53:14.719Z,4.02
2022-12-08T19:55:47.977Z,4.03
2022-12-08T19:58:19.661Z,3.96
2022-12-08T20:00:51.379Z,3.97
2022-12-08T20:03:23.173Z,3.98
2022-12-08T20:05:54.867Z,3.98
2022-12-08T20:08:26.544Z,3.95
2022-12-08T20:10:59.454Z,3.93
2022-12-08T20:13:45.787Z,3.94
2022-12-08T20:16:17.831Z,3.96
2022-12-08T20:18:52.267Z,3.93
2022-12-08T20:21:24.026Z,3.90
2022-12-08T20:23:55.803Z,3.86
2022-12-08T20:26:27.570Z,3.81
2022-12-08T20:28:59.368Z,3.77
2022-12-08T20:31:32.760Z,3.74
2022-12-08T20:34:04.548Z,3.75
2022-12-08T20:36:36.154Z,3.67
2022-12-08T20:39:12.615Z,3.64
2022-12-08T20:41:45.871Z,3.67
2022-12-08T20:44:17.977Z,3.66
2022-12-08T20:46:49.931Z,3.67
2022-12-08T20:49:28.321Z,3.58
2022-12-08T20:52:03.163Z,3.53
2022-12-08T20:54:35.719Z,3.51
2022-12-08T20:57:07.529Z,3.47
2022-12-08T20:59:39.158Z,3.39
2022-12-08T21:02:11.678Z,3.38
2022-12-08T21:04:43.549Z,3.37
2022-12-08T21:07:15.592Z,3.35
2022-12-08T21:09:47.846Z,3.31
2022-12-08T21:12:19.614Z,3.26
2022-12-08T21:14:51.264Z,3.20
2022-12-08T21:17:26.024Z,3.12
2022-12-08T21:19:57.691Z,3.12
2022-12-08T21:22:30.329Z,3.08
2022-12-08T21:25:02.032Z,3.04
2022-12-08T21:27:33.740Z,3.01
2022-12-08T21:30:08.198Z,2.97
2022-12-08T21:32:40.208Z,2.94
2022-12-08T21:35:12.173Z,2.88
2022-12-08T21:37:43.904Z,2.83
2022-12-08T21:40:15.699Z,2.80
2022-12-08T21:42:47.644Z,2.74
2022-12-08T21:45:20.653Z,2.65
2022-12-08T21:47:52.605Z,2.59
2022-12-08T21:50:24.440Z,2.55
2022-12-08T21:52:56.243Z,2.52
2022-12-08T21:55:28.080Z,2.51
2022-12-08T21:58:00.984Z,2.50
2022-12-08T22:00:32.920Z,2.45
2022-12-08T22:03:05.597Z,2.43
2022-12-08T22:05:37.559Z,2.42
2022-12-08T22:08:09.432Z,2.40
2022-12-08T22:10:46.320Z,2.35
2022-12-08T22:13:18.537Z,2.35
2022-12-08T22:16:10.448Z,2.34
2022-12-08T22:18:42.775Z,2.31
2022-12-08T22:21:18.070Z,2.28
2022-12-08T22:23:52.416Z,2.26
2022-12-08T22:26:24.147Z,2.23
2022-12-08T22:28:55.849Z,2.22
2022-12-08T22:31:27.813Z,2.21
2022-12-08T22:33:59.975Z,2.21
2022-12-08T22:36:31.643Z,2.22
2022-12-08T22:39:04.371Z,2.25
2022-12-08T22:41:36.132Z,2.24
2022-12-08T22:44:08.333Z,2.24
2022-12-08T22:46:40.064Z,2.20
2022-12-08T22:49:11.756Z,2.16
2022-12-08T22:51:43.347Z,2.13
2022-12-08T22:54:14.950Z,2.18
2022-12-08T22:56:46.555Z,2.21
2022-12-08T22:59:20.164Z,2.23
2022-12-08T23:01:53.968Z,2.24
2022-12-08T23:04:25.939Z,2.25
2022-12-08T23:06:57.668Z,2.26
2022-12-08T23:09:31.695Z,2.21
2022-12-08T23:12:04.141Z,2.19
2022-12-08T23:14:35.819Z,2.18
2022-12-08T23:17:08.119Z,2.17
2022-12-08T23:19:40.322Z,2.17
2022-12-08T23:22:11.905Z,2.15
2022-12-08T23:24:43.773Z,2.19
2022-12-08T23:27:15.395Z,2.21
2022-12-08T23:29:47.185Z,2.23
2022-12-08T23:32:18.882Z,2.20
2022-12-08T23:34:50.879Z,2.19
2022-12-08T23:37:22.787Z,2.15
2022-12-08T23:39:56.810Z,2.10
2022-12-08T23:42:31.495Z,2.08
2022-12-08T23:45:04.578Z,1.94
2022-12-08T23:47:36.431Z,1.87
2022-12-08T23:50:08.720Z,1.82
2022-12-08T23:52:40.648Z,1.81
2022-12-08T23:55:12.307Z,1.78
2022-12-08T23:57:44.100Z,1.76
